Terminal Aerodrome Forecast
Issued by NWS

Home | Current Version | Previous Version | Graphics & Text | Print | Product List | Glossary Off
Versions: 1 2 3 4 5 6 7 8 9 10 11 12 13 14

000
FTUS43 KMPX 281736
TAFRNH
TAF
KRNH 281736Z 2818/2918 19014G20KT P6SM SCT020 BKN150
     FM290100 21012KT P6SM VCSH BKN040
     FM290300 25006KT P6SM SCT250
     FM291500 27014G20KT P6SM SKC=

USA.gov is the U.S. government's official web portal to all federal, state and local government web resources and services.